createdAt,value
2023-05-18T00:01:30.791Z,52.01
2023-05-18T00:03:57.458Z,51.57
2023-05-18T00:06:25.413Z,51.88
2023-05-18T00:08:51.994Z,52.17
2023-05-18T00:11:18.572Z,51.75
2023-05-18T00:13:45.717Z,52.04
2023-05-18T00:16:15.973Z,51.36
2023-05-18T00:18:45.186Z,52.46
2023-05-18T00:21:12.287Z,52.30
2023-05-18T00:23:39.655Z,52.50
2023-05-18T00:26:08.675Z,52.29
2023-05-18T00:28:37.453Z,52.42
2023-05-18T00:31:04.088Z,52.62
2023-05-18T00:33:33.028Z,52.49
2023-05-18T00:36:02.017Z,52.50
2023-05-18T00:38:28.463Z,53.41
2023-05-18T00:40:55.057Z,52.46
2023-05-18T00:43:21.650Z,52.77
2023-05-18T00:45:48.205Z,53.14
2023-05-18T00:48:15.681Z,53.33
2023-05-18T00:50:42.154Z,53.25
2023-05-18T00:53:10.668Z,53.20
2023-05-18T00:55:37.394Z,52.83
2023-05-18T00:58:05.327Z,53.41
2023-05-18T01:00:33.753Z,53.35
2023-05-18T01:03:02.572Z,54.76
2023-05-18T01:05:29.381Z,53.73
2023-05-18T01:07:57.945Z,53.70
2023-05-18T01:10:26.896Z,53.63
2023-05-18T01:13:21.014Z,53.63
2023-05-18T01:15:52.790Z,53.29
2023-05-18T01:18:38.182Z,53.65
2023-05-18T01:21:22.021Z,53.90
2023-05-18T01:23:57.296Z,53.85
2023-05-18T01:26:30.989Z,53.58
2023-05-18T01:29:02.915Z,54.34
2023-05-18T01:31:30.335Z,54.42
2023-05-18T01:33:58.002Z,54.28
2023-05-18T01:36:24.504Z,54.70
2023-05-18T01:38:55.512Z,54.55
2023-05-18T01:41:25.744Z,55.02
2023-05-18T01:44:12.634Z,54.55
2023-05-18T01:47:14.068Z,55.46
2023-05-18T01:50:06.613Z,54.77
2023-05-18T01:52:37.619Z,55.47
2023-05-18T01:55:06.390Z,55.59
2023-05-18T01:57:35.017Z,55.38
2023-05-18T02:00:02.291Z,55.29
2023-05-18T02:02:29.302Z,55.67
2023-05-18T02:04:56.175Z,56.47
2023-05-18T02:07:23.136Z,55.73
2023-05-18T02:09:51.709Z,55.98
2023-05-18T02:12:18.288Z,55.85
2023-05-18T02:14:47.284Z,57.23
2023-05-18T02:17:13.977Z,56.65
2023-05-18T02:19:40.587Z,57.30
2023-05-18T02:22:08.151Z,56.95
2023-05-18T02:24:39.375Z,57.40
2023-05-18T02:27:05.899Z,57.16
2023-05-18T02:29:33.716Z,57.54
2023-05-18T02:32:00.171Z,58.55
2023-05-18T02:34:27.475Z,58.19
2023-05-18T02:36:57.802Z,58.15
2023-05-18T02:39:24.279Z,59.74
2023-05-18T02:41:50.912Z,60.52
2023-05-18T02:44:19.758Z,61.20
2023-05-18T02:46:46.378Z,60.88
2023-05-18T02:49:12.770Z,59.97
2023-05-18T02:51:39.262Z,60.00
2023-05-18T02:54:05.880Z,59.75
2023-05-18T02:56:33.480Z,60.70
2023-05-18T02:59:03.930Z,61.57
2023-05-18T03:01:30.466Z,63.03
2023-05-18T03:03:59.797Z,63.47
2023-05-18T03:06:27.240Z,60.36
2023-05-18T03:08:54.368Z,61.89
2023-05-18T03:11:23.940Z,61.56
2023-05-18T03:13:51.617Z,60.29
2023-05-18T03:16:18.756Z,62.09
2023-05-18T03:18:46.013Z,61.80
2023-05-18T03:21:15.504Z,62.77
2023-05-18T03:23:44.314Z,62.40
2023-05-18T03:26:12.232Z,62.91
2023-05-18T03:28:39.055Z,61.71
2023-05-18T03:31:05.655Z,61.29
2023-05-18T03:33:32.142Z,61.90
2023-05-18T03:36:03.457Z,60.88
2023-05-18T03:38:29.945Z,62.02
2023-05-18T03:40:56.609Z,61.35
2023-05-18T03:43:26.287Z,61.06
2023-05-18T03:45:53.498Z,61.45
2023-05-18T03:48:20.945Z,60.90
2023-05-18T03:50:50.052Z,61.19
2023-05-18T03:53:19.193Z,60.87
2023-05-18T03:55:46.139Z,60.59
2023-05-18T03:58:12.691Z,60.69
2023-05-18T04:00:39.170Z,61.29
2023-05-18T04:03:06.467Z,60.73
2023-05-18T04:05:33.752Z,60.86
2023-05-18T04:08:05.017Z,61.32
2023-05-18T04:10:31.517Z,60.75
2023-05-18T04:12:58.820Z,60.33
2023-05-18T04:15:25.687Z,59.71
2023-05-18T04:17:53.832Z,59.84
2023-05-18T04:20:23.637Z,59.37
2023-05-18T04:22:50.156Z,59.73
2023-05-18T04:25:22.463Z,59.80
2023-05-18T04:27:51.467Z,58.80
2023-05-18T04:30:18.677Z,58.93
2023-05-18T04:32:45.307Z,58.64
2023-05-18T04:35:12.232Z,58.76
2023-05-18T04:37:41.483Z,59.15
2023-05-18T04:40:14.424Z,58.27
2023-05-18T04:42:45.764Z,58.76
2023-05-18T04:45:18.818Z,58.82
2023-05-18T04:47:48.551Z,58.27
2023-05-18T04:50:18.236Z,58.06
2023-05-18T04:52:49.747Z,57.54
2023-05-18T04:55:23.315Z,57.73
2023-05-18T04:57:51.031Z,57.89
2023-05-18T05:00:18.148Z,57.32
2023-05-18T05:02:44.891Z,57.29
2023-05-18T05:05:12.045Z,57.19
2023-05-18T05:07:38.530Z,56.28
2023-05-18T05:10:07.588Z,56.33
2023-05-18T05:12:38.208Z,56.18
2023-05-18T05:15:05.102Z,56.25
2023-05-18T05:17:31.551Z,55.58
2023-05-18T05:19:58.172Z,55.63
2023-05-18T05:22:24.834Z,55.12
2023-05-18T05:24:53.809Z,55.04
2023-05-18T05:27:20.641Z,55.35
2023-05-18T05:29:47.311Z,54.10
2023-05-18T05:32:13.764Z,54.24
2023-05-18T05:34:46.668Z,53.83
2023-05-18T05:37:13.908Z,55.30
2023-05-18T05:39:40.488Z,54.23
2023-05-18T05:42:08.670Z,54.28
2023-05-18T05:44:35.615Z,53.19
2023-05-18T05:47:02.256Z,54.29
2023-05-18T05:49:29.666Z,53.23
2023-05-18T05:51:56.180Z,53.93
2023-05-18T05:54:22.856Z,53.56
2023-05-18T05:56:49.816Z,53.31
2023-05-18T05:59:16.322Z,52.96
2023-05-18T06:01:42.747Z,52.86
2023-05-18T06:04:12.446Z,52.73
2023-05-18T06:06:39.300Z,52.69
2023-05-18T06:09:06.011Z,53.05
2023-05-18T06:11:36.983Z,51.37
2023-05-18T06:14:03.382Z,51.70
2023-05-18T06:16:29.811Z,51.89
2023-05-18T06:18:56.481Z,52.44
2023-05-18T06:21:23.060Z,51.40
2023-05-18T06:23:49.497Z,51.15
2023-05-18T06:26:17.752Z,50.59
2023-05-18T06:28:44.159Z,50.77
2023-05-18T06:31:11.129Z,50.53
2023-05-18T06:33:38.557Z,50.16
2023-05-18T06:36:05.422Z,49.69
2023-05-18T06:38:31.984Z,49.91
2023-05-18T06:40:58.626Z,50.43
2023-05-18T06:43:28.575Z,50.08
2023-05-18T06:45:59.011Z,49.27
2023-05-18T06:48:29.592Z,48.96
2023-05-18T06:50:56.203Z,49.31
2023-05-18T06:53:23.345Z,48.93
2023-05-18T06:55:52.364Z,48.00
2023-05-18T06:58:18.738Z,47.67
2023-05-18T07:00:45.470Z,48.25
2023-05-18T07:03:12.027Z,48.30
2023-05-18T07:05:42.085Z,48.34
2023-05-18T07:08:09.555Z,48.26
2023-05-18T07:10:37.337Z,46.71
2023-05-18T07:13:03.753Z,46.54
2023-05-18T07:15:33.506Z,46.89
2023-05-18T07:18:00.931Z,46.03
2023-05-18T07:20:27.457Z,46.14
2023-05-18T07:22:57.111Z,45.69
2023-05-18T07:25:27.235Z,46.44
2023-05-18T07:28:00.042Z,45.25
2023-05-18T07:30:26.794Z,46.35
2023-05-18T07:32:53.757Z,46.69
2023-05-18T07:35:24.316Z,44.19
2023-05-18T07:37:52.069Z,44.94
2023-05-18T07:40:19.968Z,44.59
2023-05-18T07:42:47.049Z,43.13
2023-05-18T07:45:14.208Z,45.01
2023-05-18T07:47:40.869Z,43.02
2023-05-18T07:50:10.244Z,43.29
2023-05-18T07:52:36.822Z,43.52
2023-05-18T07:55:04.731Z,41.87
2023-05-18T07:57:31.214Z,43.19
2023-05-18T07:59:57.667Z,42.84
2023-05-18T08:02:24.921Z,43.33
2023-05-18T08:04:51.932Z,43.13
2023-05-18T08:07:21.524Z,43.31
2023-05-18T08:09:51.910Z,42.14
2023-05-18T08:12:21.547Z,45.09
2023-05-18T08:14:47.964Z,41.83
2023-05-18T08:17:16.619Z,41.97
2023-05-18T08:19:47.528Z,41.61
2023-05-18T08:22:17.769Z,42.61
2023-05-18T08:24:45.153Z,41.68
2023-05-18T08:27:12.028Z,42.24
2023-05-18T08:29:39.290Z,39.68
2023-05-18T08:32:07.161Z,43.13
2023-05-18T08:34:34.888Z,40.59
2023-05-18T08:37:03.014Z,41.25
2023-05-18T08:39:31.983Z,40.80
2023-05-18T08:42:09.598Z,39.83
2023-05-18T08:44:45.946Z,41.33
2023-05-18T08:47:14.735Z,41.90
2023-05-18T08:49:42.419Z,40.04
2023-05-18T08:52:09.548Z,41.02
2023-05-18T08:54:37.891Z,41.08
2023-05-18T08:57:09.062Z,39.71
2023-05-18T08:59:41.627Z,40.92
2023-05-18T09:02:11.239Z,40.61
2023-05-18T09:04:38.433Z,41.94
2023-05-18T09:07:07.660Z,41.03
2023-05-18T09:09:35.421Z,41.12
2023-05-18T09:12:01.898Z,40.92
2023-05-18T09:14:33.556Z,40.73
2023-05-18T09:17:00.766Z,40.77
2023-05-18T09:19:28.447Z,38.19
2023-05-18T09:21:58.090Z,38.37
2023-05-18T09:24:25.060Z,38.31
2023-05-18T09:26:53.233Z,40.75
2023-05-18T09:29:21.496Z,39.70
2023-05-18T09:31:48.435Z,40.25
2023-05-18T09:34:21.686Z,38.03
2023-05-18T09:36:58.049Z,38.83
2023-05-18T09:39:24.504Z,41.05
2023-05-18T09:41:57.394Z,38.32
2023-05-18T09:44:38.019Z,38.25
2023-05-18T09:47:09.872Z,39.21
2023-05-18T09:49:39.852Z,40.31
2023-05-18T09:52:09.574Z,38.59
2023-05-18T09:54:37.585Z,37.83
2023-05-18T09:57:10.674Z,38.29
2023-05-18T09:59:38.581Z,38.40
2023-05-18T10:02:12.302Z,37.08
2023-05-18T10:04:43.095Z,37.55
2023-05-18T10:07:16.748Z,36.58
2023-05-18T10:09:44.767Z,35.44
2023-05-18T10:12:15.820Z,36.19
2023-05-18T10:14:46.294Z,35.17
2023-05-18T10:17:17.627Z,36.04
2023-05-18T10:19:49.093Z,36.20
2023-05-18T10:22:18.477Z,35.87
2023-05-18T10:24:49.442Z,35.10
2023-05-18T10:27:23.364Z,35.62
2023-05-18T10:29:53.093Z,36.05
2023-05-18T10:32:20.780Z,36.17
2023-05-18T10:34:47.994Z,34.63
2023-05-18T10:37:17.396Z,34.40
2023-05-18T10:39:45.597Z,34.75
2023-05-18T10:42:17.408Z,35.98
2023-05-18T10:44:44.910Z,35.73
2023-05-18T10:47:13.027Z,34.91
2023-05-18T10:49:40.420Z,36.13
2023-05-18T10:52:08.755Z,35.21
2023-05-18T10:54:36.190Z,35.49
2023-05-18T10:57:02.967Z,34.69
2023-05-18T10:59:34.314Z,36.00
2023-05-18T11:02:01.435Z,34.63
2023-05-18T11:04:29.983Z,34.91
2023-05-18T11:07:00.033Z,35.58
2023-05-18T11:09:48.516Z,33.90
2023-05-18T11:12:20.063Z,34.10
2023-05-18T11:14:52.354Z,34.55
2023-05-18T11:17:24.457Z,34.35
2023-05-18T11:20:04.394Z,34.11
2023-05-18T11:22:48.580Z,33.14
2023-05-18T11:25:24.201Z,34.18
2023-05-18T11:27:52.638Z,33.58
2023-05-18T11:30:46.819Z,32.93
2023-05-18T11:33:15.897Z,32.69
2023-05-18T11:36:01.664Z,33.44
2023-05-18T11:38:52.001Z,33.33
2023-05-18T11:41:29.386Z,31.82
2023-05-18T11:44:15.938Z,31.88
2023-05-18T11:47:00.166Z,32.32
2023-05-18T11:49:51.016Z,32.00
2023-05-18T11:52:23.969Z,33.16
2023-05-18T11:54:56.817Z,32.83
2023-05-18T11:57:38.248Z,33.78
2023-05-18T12:00:16.197Z,32.34
2023-05-18T12:02:45.354Z,32.06
2023-05-18T12:05:13.041Z,31.94
2023-05-18T12:07:42.491Z,32.62
2023-05-18T12:10:14.911Z,32.80
2023-05-18T12:12:42.338Z,32.32
2023-05-18T12:15:11.385Z,34.98
2023-05-18T12:17:43.839Z,33.73
2023-05-18T12:20:12.477Z,34.69
2023-05-18T12:22:44.287Z,33.92
2023-05-18T12:25:11.309Z,32.57
2023-05-18T12:27:43.610Z,32.16
2023-05-18T12:30:14.661Z,32.91
2023-05-18T12:32:57.217Z,33.39
2023-05-18T12:35:27.976Z,31.89
2023-05-18T12:37:56.020Z,32.30
2023-05-18T12:40:26.797Z,32.69
2023-05-18T12:42:59.893Z,32.34
2023-05-18T12:45:28.673Z,33.80
2023-05-18T12:47:56.194Z,33.63
2023-05-18T12:50:27.637Z,31.74
2023-05-18T12:52:56.647Z,31.91
2023-05-18T12:55:26.529Z,32.18
2023-05-18T12:57:59.277Z,32.00
2023-05-18T13:00:29.212Z,32.01
2023-05-18T13:03:06.294Z,32.81
2023-05-18T13:05:33.088Z,31.08
2023-05-18T13:07:59.693Z,32.25
2023-05-18T13:10:30.220Z,32.68
2023-05-18T13:13:03.403Z,33.54
2023-05-18T13:15:37.716Z,32.93
2023-05-18T13:18:06.818Z,31.79
2023-05-18T13:20:43.886Z,31.65
2023-05-18T13:23:18.253Z,31.46
2023-05-18T13:25:46.357Z,31.71
2023-05-18T13:28:16.419Z,32.03
2023-05-18T13:30:43.793Z,32.72
2023-05-18T13:33:11.030Z,31.67
2023-05-18T13:35:40.526Z,31.44
2023-05-18T13:38:07.280Z,32.08
2023-05-18T13:40:35.240Z,32.34
2023-05-18T13:43:06.093Z,32.05
2023-05-18T13:45:35.930Z,31.52
2023-05-18T13:48:09.596Z,32.43
2023-05-18T13:50:37.983Z,31.91
2023-05-18T13:53:04.569Z,32.96
2023-05-18T13:55:31.422Z,33.32
2023-05-18T13:57:58.073Z,33.04
2023-05-18T14:00:25.037Z,33.23
2023-05-18T14:02:54.412Z,32.82
2023-05-18T14:05:21.302Z,33.69
2023-05-18T14:07:48.102Z,32.98
2023-05-18T14:10:14.604Z,32.97
2023-05-18T14:12:42.637Z,32.78
2023-05-18T14:15:10.311Z,32.01
2023-05-18T14:17:37.234Z,32.18
2023-05-18T14:20:07.002Z,32.20
2023-05-18T14:22:36.966Z,31.10
2023-05-18T14:25:05.988Z,33.10
2023-05-18T14:27:32.530Z,33.92
2023-05-18T14:29:58.985Z,32.88
2023-05-18T14:32:25.627Z,34.04
2023-05-18T14:34:55.330Z,34.02
2023-05-18T14:37:22.131Z,34.54
2023-05-18T14:39:49.980Z,34.90
2023-05-18T14:42:16.522Z,33.52
2023-05-18T14:44:43.060Z,33.89
2023-05-18T14:47:10.912Z,33.82
2023-05-18T14:49:37.884Z,34.18
2023-05-18T14:52:04.761Z,33.57
2023-05-18T14:54:31.241Z,34.25
2023-05-18T14:56:57.895Z,34.08
2023-05-18T14:59:24.297Z,33.05
2023-05-18T15:01:51.304Z,33.78
2023-05-18T15:04:18.057Z,33.63
2023-05-18T15:06:44.499Z,33.19
2023-05-18T15:09:11.337Z,33.92
2023-05-18T15:11:37.844Z,32.90
2023-05-18T15:14:04.864Z,33.73
2023-05-18T15:16:31.749Z,33.77
2023-05-18T15:18:58.323Z,34.22
2023-05-18T15:21:24.916Z,33.59
2023-05-18T15:23:54.755Z,33.90
2023-05-18T15:26:21.401Z,34.95
2023-05-18T15:28:48.059Z,35.02
2023-05-18T15:31:14.732Z,35.35
2023-05-18T15:33:43.874Z,36.32
2023-05-18T15:36:10.576Z,34.61
2023-05-18T15:38:37.157Z,34.14
2023-05-18T15:41:03.779Z,33.82
2023-05-18T15:43:30.670Z,33.88
2023-05-18T15:45:59.846Z,34.58
2023-05-18T15:48:26.337Z,35.30
2023-05-18T15:50:53.066Z,34.70
2023-05-18T15:53:19.546Z,35.86
2023-05-18T15:55:50.692Z,35.09
2023-05-18T15:58:17.199Z,35.33
2023-05-18T16:00:46.446Z,34.51
2023-05-18T16:03:15.506Z,34.40
2023-05-18T16:05:46.589Z,34.03
2023-05-18T16:08:13.343Z,33.98
2023-05-18T16:10:39.983Z,34.98
2023-05-18T16:13:06.640Z,34.86
2023-05-18T16:15:39.635Z,35.04
2023-05-18T16:18:06.621Z,34.92
2023-05-18T16:20:35.910Z,35.35
2023-05-18T16:23:02.383Z,35.47
2023-05-18T16:25:32.583Z,35.79
2023-05-18T16:27:59.121Z,36.20
2023-05-18T16:30:25.744Z,36.48
2023-05-18T16:32:54.705Z,35.46
2023-05-18T16:35:21.474Z,35.52
2023-05-18T16:37:48.316Z,35.22
2023-05-18T16:40:14.934Z,35.98
2023-05-18T16:42:41.444Z,36.25
2023-05-18T16:45:08.461Z,36.67
2023-05-18T16:47:34.954Z,36.76
2023-05-18T16:50:01.528Z,36.91
2023-05-18T16:52:30.791Z,36.65
2023-05-18T16:54:57.193Z,35.77
2023-05-18T16:57:26.701Z,36.44
2023-05-18T16:59:53.996Z,35.98
2023-05-18T17:02:20.652Z,36.29
2023-05-18T17:04:50.520Z,36.75
2023-05-18T17:07:17.132Z,36.65
2023-05-18T17:09:46.646Z,36.62
2023-05-18T17:12:13.222Z,37.16
2023-05-18T17:14:39.927Z,37.52
2023-05-18T17:17:09.951Z,37.60
2023-05-18T17:19:36.730Z,37.19
2023-05-18T17:22:06.459Z,36.53
2023-05-18T17:24:37.807Z,36.79
2023-05-18T17:27:05.042Z,36.52
2023-05-18T17:29:31.599Z,36.82
2023-05-18T17:31:58.167Z,37.42
2023-05-18T17:34:32.533Z,37.44
2023-05-18T17:37:02.315Z,37.85
2023-05-18T17:39:28.780Z,38.10
2023-05-18T17:41:55.319Z,38.90
2023-05-18T17:44:21.826Z,39.26
2023-05-18T17:46:52.096Z,38.95
2023-05-18T17:49:18.936Z,38.73
2023-05-18T17:51:45.717Z,39.55
2023-05-18T17:54:13.454Z,38.41
2023-05-18T17:56:40.281Z,38.59
2023-05-18T17:59:11.727Z,39.65
2023-05-18T18:01:38.399Z,39.38
2023-05-18T18:04:05.258Z,39.60
2023-05-18T18:06:35.880Z,39.56
2023-05-18T18:09:04.653Z,39.78
2023-05-18T18:11:34.868Z,40.26
2023-05-18T18:14:02.480Z,39.57
2023-05-18T18:16:34.305Z,40.05
2023-05-18T18:19:02.688Z,40.32
2023-05-18T18:21:29.619Z,39.47
2023-05-18T18:23:56.087Z,40.36
2023-05-18T18:26:22.490Z,40.88
2023-05-18T18:28:49.731Z,40.83
2023-05-18T18:31:16.260Z,40.72
2023-05-18T18:33:46.539Z,40.86
2023-05-18T18:36:15.890Z,41.58
2023-05-18T18:38:47.889Z,42.11
2023-05-18T18:41:17.917Z,41.71
2023-05-18T18:43:47.210Z,42.25
2023-05-18T18:46:13.742Z,42.18
2023-05-18T18:48:40.202Z,42.21
2023-05-18T18:51:07.315Z,42.55
2023-05-18T18:53:33.794Z,43.52
2023-05-18T18:56:01.779Z,44.27
2023-05-18T18:58:28.803Z,44.58
2023-05-18T19:00:55.926Z,44.08
2023-05-18T19:03:23.280Z,44.66
2023-05-18T19:05:51.658Z,43.65
2023-05-18T19:08:18.079Z,43.32
2023-05-18T19:10:46.552Z,43.64
2023-05-18T19:13:13.028Z,43.44
2023-05-18T19:15:42.380Z,43.50
2023-05-18T19:18:10.582Z,42.67
2023-05-18T19:20:39.715Z,42.89
2023-05-18T19:23:06.253Z,43.34
2023-05-18T19:25:36.715Z,42.39
2023-05-18T19:28:03.157Z,43.63
2023-05-18T19:30:30.155Z,42.76
2023-05-18T19:32:56.645Z,43.22
2023-05-18T19:35:26.916Z,43.66
2023-05-18T19:37:54.032Z,44.19
2023-05-18T19:40:23.149Z,44.28
2023-05-18T19:42:52.035Z,43.70
2023-05-18T19:45:22.387Z,44.33
2023-05-18T19:47:48.875Z,44.08
2023-05-18T19:50:15.480Z,44.50
2023-05-18T19:52:42.134Z,44.42
2023-05-18T19:55:08.619Z,44.89
2023-05-18T19:57:35.000Z,44.15
2023-05-18T20:00:02.399Z,44.39
2023-05-18T20:02:31.812Z,44.28
2023-05-18T20:05:00.754Z,45.91
2023-05-18T20:07:31.505Z,44.92
2023-05-18T20:09:59.103Z,45.00
2023-05-18T20:12:28.434Z,45.21
2023-05-18T20:14:54.814Z,46.42
2023-05-18T20:17:23.179Z,45.94
2023-05-18T20:19:53.379Z,47.12
2023-05-18T20:22:21.190Z,45.98
2023-05-18T20:24:51.790Z,47.08
2023-05-18T20:27:18.221Z,46.51
2023-05-18T20:29:45.636Z,47.61
2023-05-18T20:32:16.316Z,49.36
2023-05-18T20:34:44.885Z,49.35
2023-05-18T20:37:11.388Z,48.74
2023-05-18T20:39:41.500Z,50.39
2023-05-18T20:42:13.008Z,50.25
2023-05-18T20:44:39.539Z,50.13
2023-05-18T20:47:06.051Z,50.70
2023-05-18T20:49:36.119Z,50.41
2023-05-18T20:52:05.456Z,49.71
2023-05-18T20:54:34.773Z,50.20
2023-05-18T20:57:01.182Z,50.57
2023-05-18T20:59:27.622Z,50.30
2023-05-18T21:01:54.679Z,50.05
2023-05-18T21:04:22.086Z,49.95
2023-05-18T21:06:51.472Z,51.41
2023-05-18T21:09:19.459Z,51.20
2023-05-18T21:11:45.872Z,51.10
2023-05-18T21:14:12.352Z,50.33
2023-05-18T21:16:38.840Z,51.22
2023-05-18T21:19:07.779Z,51.16
2023-05-18T21:21:34.258Z,51.94
2023-05-18T21:24:01.769Z,49.43
2023-05-18T21:26:29.005Z,51.28
2023-05-18T21:28:58.036Z,49.87
2023-05-18T21:31:27.033Z,49.78
2023-05-18T21:33:56.128Z,49.29
2023-05-18T21:36:34.310Z,49.53
2023-05-18T21:39:04.032Z,49.67
2023-05-18T21:41:35.252Z,49.78
2023-05-18T21:44:20.330Z,50.25
2023-05-18T21:47:08.824Z,49.63
2023-05-18T21:49:53.970Z,50.70
2023-05-18T21:52:39.170Z,50.33
2023-05-18T21:55:25.187Z,50.80
2023-05-18T21:58:11.039Z,51.51
2023-05-18T22:00:55.999Z,51.20
2023-05-18T22:03:44.084Z,50.86
2023-05-18T22:06:28.862Z,51.22
2023-05-18T22:09:14.007Z,52.17
2023-05-18T22:11:59.089Z,51.16
2023-05-18T22:14:44.172Z,51.10
2023-05-18T22:17:29.754Z,50.72
2023-05-18T22:20:17.144Z,50.62
2023-05-18T22:23:02.266Z,51.19
2023-05-18T22:25:47.646Z,50.88
2023-05-18T22:28:32.638Z,52.09
2023-05-18T22:31:18.863Z,52.31
2023-05-18T22:34:03.699Z,52.32
2023-05-18T22:36:49.869Z,52.85
2023-05-18T22:39:34.910Z,51.48
2023-05-18T22:42:22.276Z,51.84
2023-05-18T22:45:04.095Z,51.79
2023-05-18T22:47:32.003Z,51.74
2023-05-18T22:49:58.443Z,51.79
2023-05-18T22:52:24.877Z,51.63
2023-05-18T22:54:52.748Z,52.08
2023-05-18T22:57:19.358Z,52.72
2023-05-18T22:59:45.800Z,52.28
2023-05-18T23:02:12.533Z,51.86
2023-05-18T23:04:39.141Z,52.03
2023-05-18T23:07:05.577Z,52.32
2023-05-18T23:09:32.103Z,54.05
2023-05-18T23:12:00.984Z,53.10
2023-05-18T23:14:31.194Z,53.58
2023-05-18T23:17:05.970Z,54.01
2023-05-18T23:19:36.087Z,53.42
2023-05-18T23:22:06.803Z,53.98
2023-05-18T23:24:33.226Z,54.64
2023-05-18T23:26:59.650Z,55.24
2023-05-18T23:29:27.510Z,54.93
2023-05-18T23:31:54.041Z,55.14
2023-05-18T23:34:20.896Z,55.24
2023-05-18T23:36:53.275Z,53.89
2023-05-18T23:39:24.790Z,54.56
2023-05-18T23:41:59.003Z,55.32
2023-05-18T23:44:26.386Z,54.95
2023-05-18T23:46:53.523Z,54.62
2023-05-18T23:49:21.099Z,54.78
2023-05-18T23:51:51.972Z,56.38
2023-05-18T23:54:21.711Z,55.95
2023-05-18T23:56:49.694Z,54.58
2023-05-18T23:59:16.563Z,55.22
